This is the latest recevied weather packets stored in our database for station/object OK1UOJ. If no packets are shown the sender has not sent any weather packets the latest 1 day(s).
| Time | Temp. | Humidity | Pressure | Rain* | Wind** | Luminosity | Snow |
|---|---|---|---|---|---|---|---|
| 1777974627 | - | - | - | - | 3.13 m/s, 135° | - | - |
| 1777974348 | - | - | - | - | 2.68 m/s, 125° | - | - |
| 1777973514 | 20° C | 75% | 1009.8 hPa | - | 3.13 m/s, 132° | - | - |
| 1777973235 | 20.56° C | 71% | 1009.9 hPa | - | 3.13 m/s, 140° | - | - |
| 1777972957 | 20° C | 71% | 1009.9 hPa | - | 2.68 m/s, 138° | - | - |
| 1777972679 | 20° C | 77% | 1010 hPa | - | 2.68 m/s, 125° | - | - |
| 1777972400 | 20° C | 71% | 1010 hPa | - | 2.68 m/s, 135° | - | - |
| 1777972123 | 20° C | 78% | 1010.1 hPa | - | 3.13 m/s, 131° | - | - |
| 1777971844 | 20° C | 75% | 1010.2 hPa | - | 2.68 m/s, 125° | - | - |
| 1777971566 | 19.44° C | 77% | 1010.2 hPa | - | 2.68 m/s, 129° | - | - |
| 1777971287 | 19.44° C | 77% | 1010.3 hPa | - | 3.13 m/s, 126° | - | - |
| 1777971009 | 19.44° C | 76% | 1010.4 hPa | - | 2.68 m/s, 132° | - | - |
| 1777970731 | - | - | - | - | 2.68 m/s, 132° | - | - |
| 1777970175 | 19.44° C | 74% | 1010.5 hPa | - | 2.68 m/s, 129° | - | - |
| 1777968789 | 18.33° C | 81% | 1010.6 hPa | - | 2.68 m/s, 129° | - | - |
| 1777968789 | - | - | - | - | 2.68 m/s, 129° | - | - |
| 1777968788 | 18.33° C | 81% | 1010.6 hPa | - | 2.68 m/s, 129° | - | - |
| 1777968784 | 18.33° C | 81% | 1010.6 hPa | - | 2.68 m/s, 129° | - | - |
| 1777968228 | 18.33° C | 83% | 1010.7 hPa | - | 2.24 m/s, 120° | - | - |
| 1777967949 | 18.33° C | 82% | 1010.7 hPa | - | 2.68 m/s, 136° | - | - |
| 1777967672 | 18.33° C | 84% | 1010.8 hPa | - | 2.24 m/s, 122° | - | - |
| 1777967120 | 18.33° C | 86% | - | - | 2.24 m/s, 126° | - | - |
| 1777967120 | 18.33° C | 86% | - | - | 2.24 m/s, 126° | - | - |
| 1777967115 | 18.33° C | 86% | 1011 hPa | - | 2.24 m/s, 126° | - | - |
| 1777966559 | 17.78° C | 82% | 1011.2 hPa | - | 2.24 m/s, 138° | - | - |
* Rain since midnight (hover to see other rain measurements)
** Current wind speed in m/s (hover to see current wind gust speed)